Time,TemperatureF,DewpointF,PressureIn,WindDirection,WindDirectionDegrees,WindSpeedMPH,WindSpeedGustMPH,Humidity,HourlyPrecipIn,Conditions,Clouds,dailyrainin,SoftwareType,DateUTC
2013-12-13 07:53:00,15.0,8.0,30.22,SW,225,0.0,0.0,72,0.00,,,0.00,,2013-12-13 12:53:00,
2013-12-13 08:22:00,14.0,7.0,30.23,SW,225,0.0,0.0,72,0.00,,,0.00,,2013-12-13 13:22:00,
2013-12-13 08:52:00,14.0,7.0,30.22,SW,225,0.0,0.0,73,0.00,,,0.00,,2013-12-13 13:52:00,
2013-12-13 09:22:00,15.0,8.0,30.23,SW,225,0.0,0.0,74,0.00,,,0.00,,2013-12-13 14:22:00,
2013-12-13 09:52:00,21.0,15.0,30.23,SW,227,2.0,2.0,76,0.00,,,0.00,,2013-12-13 14:52:00,
2013-12-13 10:22:00,24.0,15.0,30.23,SW,225,3.0,3.0,69,0.00,,,0.00,,2013-12-13 15:22:00,
2013-12-13 10:53:00,24.0,15.0,30.23,WSW,247,2.0,3.0,69,0.00,,,0.00,,2013-12-13 15:53:00,
2013-12-13 11:23:00,27.0,18.0,30.22,WSW,247,1.0,6.0,68,0.00,,,0.00,,2013-12-13 16:23:00,
2013-12-13 11:53:00,27.0,17.0,30.21,West,270,0.0,0.0,66,0.00,,,0.00,,2013-12-13 16:53:00,
2013-12-13 12:22:00,26.0,16.0,30.21,South,180,2.0,2.0,66,0.00,,,0.00,,2013-12-13 17:22:00,
2013-12-13 12:52:00,26.0,16.0,30.19,WSW,247,2.0,2.0,64,0.00,,,0.00,,2013-12-13 17:52:00,
2013-12-13 13:22:00,25.0,15.0,30.17,South,180,1.0,1.0,64,0.00,,,0.00,,2013-12-13 18:22:00,
2013-12-13 13:52:00,26.0,15.0,30.15,WSW,247,3.0,3.0,63,0.00,,,0.00,,2013-12-13 18:52:00,
2013-12-13 14:22:00,28.0,16.0,30.14,SSE,157,4.0,4.0,60,0.00,,,0.00,,2013-12-13 19:22:00,
2013-12-13 14:52:00,29.0,17.0,30.14,SW,225,0.0,0.0,60,0.00,,,0.00,,2013-12-13 19:52:00,
2013-12-13 15:22:00,30.0,17.0,30.14,South,180,0.0,0.0,59,0.00,,,0.00,,2013-12-13 20:22:00,
2013-12-13 15:53:00,31.0,19.0,30.13,South,180,0.0,0.0,61,0.00,,,0.00,,2013-12-13 20:53:00,
2013-12-13 16:22:00,32.0,20.0,30.13,SSE,168,5.0,7.0,62,0.00,,,0.00,,2013-12-13 21:22:00,
2013-12-13 16:53:00,31.0,20.0,30.13,SE,135,0.0,3.0,63,0.00,,,0.00,,2013-12-13 21:53:00,
2013-12-13 17:10:00,32.0,22.0,30.13,North,-999,-999.0,-999.0,65,0.00,,,0.00,,2013-12-13 22:10:00,
2013-12-13 17:23:00,32.0,22.0,30.13,South,180,0.0,3.0,65,0.00,,,0.00,,2013-12-13 22:23:00,
2013-12-13 17:42:00,32.0,22.0,30.13,North,-999,-999.0,-999.0,65,0.00,,,0.00,,2013-12-13 22:42:00,
2013-12-13 17:53:00,32.0,22.0,30.13,North,-999,-999.0,-999.0,65,0.00,,,0.00,,2013-12-13 22:53:00,
2013-12-13 18:03:00,32.0,22.0,30.13,North,-999,-999.0,-999.0,65,0.00,,,0.00,,2013-12-13 23:03:00,
2013-12-13 19:22:00,31.0,22.0,30.16,North,-999,-999.0,-999.0,68,0.00,,,0.00,,2013-12-14 00:22:00,
2013-12-13 19:32:00,31.0,22.0,30.16,North,-999,-999.0,-999.0,68,0.00,,,0.00,,2013-12-14 00:32:00,
2013-12-13 19:52:00,31.0,22.0,30.16,North,-999,-999.0,-999.0,68,0.00,,,0.00,,2013-12-14 00:52:00,
2013-12-13 20:22:00,30.0,21.0,30.17,SSE,157,0.0,0.0,69,0.00,,,0.00,,2013-12-14 01:22:00,
2013-12-13 20:42:00,30.0,21.0,30.17,North,-999,-999.0,-999.0,69,0.00,,,0.00,,2013-12-14 01:42:00,
2013-12-13 20:52:00,30.0,21.0,30.17,North,-999,-999.0,-999.0,69,0.00,,,0.00,,2013-12-14 01:52:00,
2013-12-13 21:01:00,30.0,21.0,30.17,North,-999,-999.0,-999.0,69,0.00,,,0.00,,2013-12-14 02:01:00,
2013-12-13 21:30:00,30.0,21.0,30.15,North,-999,-999.0,-999.0,70,0.00,,,0.00,,2013-12-14 02:30:00,
2013-12-13 21:52:00,30.0,21.0,30.15,North,-999,-999.0,-999.0,70,0.00,,,0.00,,2013-12-14 02:52:00,
2013-12-13 22:02:00,30.0,21.0,30.15,North,-999,-999.0,-999.0,70,0.00,,,0.00,,2013-12-14 03:02:00,
2013-12-13 22:12:00,30.0,21.0,30.15,North,-999,-999.0,-999.0,70,0.00,,,0.00,,2013-12-14 03:12:00,
2013-12-13 22:22:00,30.0,21.0,30.15,North,-999,-999.0,-999.0,70,0.00,,,0.00,,2013-12-14 03:22:00,